地図

経路データ

SID SEASON NUMBER BASIN SUBBASIN NAME ISO_TIME NATURE LAT LON WMO_WIND WMO_PRES WMO_AGENCY TRACK_TYPE DIST2LAND LANDFALL IFLAG USA_AGENCY USA_ATCF_ID USA_LAT USA_LON USA_RECORD USA_STATUS USA_WIND USA_PRES USA_SSHS USA_R34_NE USA_R34_SE USA_R34_SW USA_R34_NW USA_R50_NE USA_R50_SE USA_R50_SW USA_R50_NW USA_R64_NE USA_R64_SE USA_R64_SW USA_R64_NW USA_POCI USA_ROCI USA_RMW USA_EYE TOKYO_LAT TOKYO_LON TOKYO_GRADE TOKYO_WIND TOKYO_PRES TOKYO_R50_DIR TOKYO_R50_LONG TOKYO_R50_SHORT TOKYO_R30_DIR TOKYO_R30_LONG TOKYO_R30_SHORT TOKYO_LAND CMA_LAT CMA_LON CMA_CAT CMA_WIND CMA_PRES HKO_LAT HKO_LON HKO_CAT HKO_WIND HKO_PRES NEWDELHI_LAT NEWDELHI_LON NEWDELHI_GRADE NEWDELHI_WIND NEWDELHI_PRES NEWDELHI_CI NEWDELHI_DP NEWDELHI_POCI REUNION_LAT REUNION_LON REUNION_TYPE REUNION_WIND REUNION_PRES REUNION_TNUM REUNION_CI REUNION_RMW REUNION_R34_NE REUNION_R34_SE REUNION_R34_SW REUNION_R34_NW REUNION_R50_NE REUNION_R50_SE REUNION_R50_SW REUNION_R50_NW REUNION_R64_NE REUNION_R64_SE REUNION_R64_SW REUNION_R64_NW BOM_LAT BOM_LON BOM_TYPE BOM_WIND BOM_PRES BOM_TNUM BOM_CI BOM_RMW BOM_R34_NE BOM_R34_SE BOM_R34_SW BOM_R34_NW BOM_R50_NE BOM_R50_SE BOM_R50_SW BOM_R50_NW BOM_R64_NE BOM_R64_SE BOM_R64_SW BOM_R64_NW BOM_ROCI BOM_POCI BOM_EYE BOM_POS_METHOD BOM_PRES_METHOD NADI_LAT NADI_LON NADI_CAT NADI_WIND NADI_PRES WELLINGTON_LAT WELLINGTON_LON WELLINGTON_WIND WELLINGTON_PRES DS824_LAT DS824_LON DS824_STAGE DS824_WIND DS824_PRES TD9636_LAT TD9636_LON TD9636_STAGE TD9636_WIND TD9636_PRES TD9635_LAT TD9635_LON TD9635_WIND TD9635_PRES TD9635_ROCI NEUMANN_LAT NEUMANN_LON NEUMANN_CLASS NEUMANN_WIND NEUMANN_PRES MLC_LAT MLC_LON MLC_CLASS MLC_WIND MLC_PRES USA_GUST BOM_GUST BOM_GUST_PER REUNION_GUST REUNION_GUST_PER USA_SEAHGT USA_SEARAD_NE USA_SEARAD_SE USA_SEARAD_SW USA_SEARAD_NW STORM_SPEED STORM_DIR
1957235N11160 1957 47 WP MM NOT_NAMED 1957-08-23 00:00:00 TS 11.1000 159.800 main 1827 1724 __O___________ -1 11.1000 159.800 0 1008 38 267
1957235N11160 1957 47 WP MM NOT_NAMED 1957-08-23 03:00:00 TS 10.9918 157.872 main 1719 1614 __P___________ -1 10.9918 157.872 0 1008 38 266
1957235N11160 1957 47 WP MM NOT_NAMED 1957-08-23 06:00:00 TS 10.8000 155.900 main 1610 1518 __O___________ -1 10.8000 155.900 0 1008 40 263
1957235N11160 1957 47 WP MM NOT_NAMED 1957-08-23 09:00:00 TS 10.4925 153.882 main 1515 1451 __P___________ -1 10.4925 153.882 0 1007 39 261
1957235N11160 1957 47 WP MM NOT_NAMED 1957-08-23 12:00:00 TS 10.2000 152.000 main 1450 1406 __O___________ -1 10.2000 152.000 0 1007 35 263
1957235N11160 1957 47 WP MM NOT_NAMED 1957-08-23 15:00:00 TS 10.0543 150.351 main 1406 1368 __P___________ -1 10.0543 150.351 0 1006 30 266
1957235N11160 1957 47 WP MM NOT_NAMED 1957-08-23 18:00:00 TS 10.0000 149.000 main 1367 1357 __O___________ -1 10.0000 149.000 0 1006 24 268
1957235N11160 1957 47 WP MM NOT_NAMED 1957-08-23 21:00:00 TS 9.98421 147.923 main 1356 1355 __P___________ -1 9.98421 147.923 0 1006 19 270
1957235N11160 1957 47 WP MM NOT_NAMED 1957-08-24 00:00:00 TS 10.0000 147.100 main 1355 1355 __O___________ -1 10.0000 147.100 0 1006 15 271
1957235N11160 1957 47 WP MM NOT_NAMED 1957-08-24 03:00:00 TS 9.99948 146.420 main 1356 1356 __P___________ -1 9.99948 146.420 0 1005 13 270
1957235N11160 1957 47 WP MM NOT_NAMED 1957-08-24 06:00:00 TS 10.0000 145.800 main 1358 1358 __O___________ -1 10.0000 145.800 0 1005 13 270
1957235N11160 1957 47 WP MM NOT_NAMED 1957-08-24 09:00:00 TS 9.99993 145.065 main 1365 1365 __P___________ -1 9.99993 145.065 0 1005 15 270
1957235N11160 1957 47 WP MM NOT_NAMED 1957-08-24 12:00:00 TS 10.0000 144.300 main 1379 1379 __O___________ -1 10.0000 144.300 0 1005 15 270
1957235N11160 1957 47 WP MM NOT_NAMED 1957-08-24 15:00:00 TS 9.99233 143.550 main 1398 1396 __P___________ -1 9.99233 143.550 0 1005 15 270
1957235N11160 1957 47 WP MM NOT_NAMED 1957-08-24 18:00:00 TS 10.0000 142.800 main 1396 1369 __O___________ -1 10.0000 142.800 0 1005 15 270
1957235N11160 1957 47 WP MM NOT_NAMED 1957-08-24 21:00:00 TS 10.0047 142.065 main 1369 1353 __P___________ -1 10.0047 142.065 0 1005 15 274
1957235N11160 1957 47 WP MM NOT_NAMED 1957-08-25 00:00:00 TS 10.1000 141.300 main 1355 1342 __O___________ -1 10.1000 141.300 0 1005 16 282
1957235N11160 1957 47 WP MM NOT_NAMED 1957-08-25 03:00:00 TS 10.3476 140.443 main 1339 1339 __P___________ -1 10.3476 140.443 0 1005 18 290
1957235N11160 1957 47 WP MM NOT_NAMED 1957-08-25 06:00:00 TS 10.7000 139.600 main 1351 1348 __O___________ -1 10.7000 139.600 0 1005 17 295
1957235N11160 1957 47 WP MM NOT_NAMED 1957-08-25 09:00:00 TS 11.0622 138.870 main 1371 1337 __P___________ -1 11.0622 138.870 0 1005 16 300
1957235N11160 1957 47 WP MM NOT_NAMED 1957-08-25 12:00:00 TS 11.5000 138.200 main 1337 1285 __O___________ -1 11.5000 138.200 0 1005 16 307
1957235N11160 1957 47 WP MM NOT_NAMED 1957-08-25 15:00:00 TS 12.0273 137.550 main 1274 1222 __P___________ -1 12.0273 137.550 0 1005 17 311
1957235N11160 1957 47 WP MM NOT_NAMED 1957-08-25 18:00:00 TS 12.6000 136.900 main 1222 1155 __O___________ -1 12.6000 136.900 0 1005 18 309
1957235N11160 1957 47 WP MM NOT_NAMED 1957-08-25 21:00:00 TS 13.1503 136.148 main 1147 1096 __P___________ -1 13.1503 136.148 0 1005 18 309
1957235N11160 1957 47 WP MM NOT_NAMED 1957-08-26 00:00:00 TS 13.7000 135.500 main 1096 1072 __O___________ -1 13.7000 135.500 0 1005 15 318
1957235N11160 1957 47 WP MM NOT_NAMED 1957-08-26 03:00:00 TS 14.2571 135.139 main 1065 1054 __P___________ -1 14.2571 135.139 0 1004 13 332
1957235N11160 1957 47 WP MM NOT_NAMED 1957-08-26 06:00:00 TS 14.8000 134.900 main 1057 1039 __O___________ -1 14.8000 134.900 0 1004 12 334
1957235N11160 1957 47 WP MM NOT_NAMED 1957-08-26 09:00:00 TS 15.3225 134.592 main 1042 1027 __P___________ -1 15.3225 134.592 0 1004 12 330
1957235N11160 1957 47 WP MM NOT_NAMED 1957-08-26 12:00:00 TS 15.8000 134.300 main 1031 1025 __O___________ -1 15.8000 134.300 0 1004 11 330
1957235N11160 1957 47 WP MM NOT_NAMED 1957-08-26 15:00:00 TS 16.2299 134.050 main 1020 1015 __P___________ -1 16.2299 134.050 0 1004 9 329
1957235N11160 1957 47 WP MM NOT_NAMED 1957-08-26 18:00:00 TS 16.6000 133.800 main 1020 1009 __O___________ -1 16.6000 133.800 0 1004 9 323
1957235N11160 1957 47 WP MM NOT_NAMED 1957-08-26 21:00:00 TS 16.9300 133.507 main 1009 999 __P___________ -1 16.9300 133.507 0 1004 8 316
1957235N11160 1957 47 WP MM NOT_NAMED 1957-08-27 00:00:00 TS 17.2000 133.200 main 999 985 __O___________ -1 17.2000 133.200 0 1004 8 310
1957235N11160 1957 47 WP MM NOT_NAMED 1957-08-27 03:00:00 TS 17.4300 132.892 main 985 970 __P___________ -1 17.4300 132.892 0 1003 7 305
1957235N11160 1957 47 WP MM NOT_NAMED 1957-08-27 06:00:00 TS 17.6000 132.600 main 970 955 __O___________ -1 17.6000 132.600 0 1002 6 299
1957235N11160 1957 47 WP MM NOT_NAMED 1957-08-27 09:00:00 TS 17.7224 132.350 main 946 932 __P___________ -1 17.7224 132.350 0 1002 5 293
1957235N11160 1957 47 WP MM NOT_NAMED 1957-08-27 12:00:00 TS 17.8000 132.100 main 932 909 __O___________ -1 17.8000 132.100 0 1002 6 286
1957235N11160 1957 47 WP MM NOT_NAMED 1957-08-27 15:00:00 TS 17.8726 131.785 main 909 881 __P___________ -1 17.8726 131.785 0 1002 6 280
1957235N11160 1957 47 WP MM NOT_NAMED 1957-08-27 18:00:00 TS 17.9000 131.500 main 881 863 __O___________ -1 17.9000 131.500 0 1002 5 271
1957235N11160 1957 47 WP MM NOT_NAMED 1957-08-27 21:00:00 TS 17.8799 131.312 main 863 848 __P___________ -1 17.8799 131.312 0 1002 3 251
1957235N11160 1957 47 WP MM NOT_NAMED 1957-08-28 00:00:00 TS 17.8000 131.200 main 848 833 __O___________ -1 17.8000 131.200 0 1002 3 222
1957235N11160 1957 47 WP MM NOT_NAMED 1957-08-28 03:00:00 TS 17.6650 131.112 main 833 822 __P___________ -1 17.6650 131.112 0 1002 3 197
1957235N11160 1957 47 WP MM NOT_NAMED 1957-08-28 06:00:00 TS 17.5000 131.100 main 822 817 __O___________ -1 17.5000 131.100 0 1002 3 0
1957235N11160 1957 47 WP MM NOT_NAMED 1957-08-28 09:00:00 TS 17.3424 131.140 main 812 812 __P___________ -1 17.3424 131.140 0 1002 4 148
1957235N11160 1957 47 WP MM NOT_NAMED 1957-08-28 12:00:00 TS 17.2000 131.300 main 826 826 __O___________ -1 17.2000 131.300 0 1002 5 119
1957235N11160 1957 47 WP MM NOT_NAMED 1957-08-28 15:00:00 TS 17.0851 131.620 main 850 850 __P___________ -1 17.0851 131.620 0 1002 7 107
1957235N11160 1957 47 WP MM NOT_NAMED 1957-08-28 18:00:00 TS 17.0000 132.000 main 882 882 __O___________ -1 17.0000 132.000 0 1002 7 104
1957235N11160 1957 47 WP MM NOT_NAMED 1957-08-28 21:00:00 TS 16.9273 132.285 main 901 901 __P___________ -1 16.9273 132.285 0 1002 6 100
1957235N11160 1957 47 WP MM NOT_NAMED 1957-08-29 00:00:00 TS 16.9000 132.600 main 927 927 __O___________ -1 16.9000 132.600 0 19 1002 7 89
1957235N11160 1957 47 WP MM NOT_NAMED 1957-08-29 03:00:00 TS 16.9350 133.027 main 963 963 __P___________ -1 16.9350 133.027 0 19 1001 9 83
1957235N11160 1957 47 WP MM NOT_NAMED 1957-08-29 06:00:00 TS 17.0000 133.500 main 1014 1014 __O___________ -1 17.0000 133.500 0 19 1000 9 83
1957235N11160 1957 47 WP MM NOT_NAMED 1957-08-29 09:00:00 TS 17.0424 133.950 main 1060 1060 __P___________ -1 17.0424 133.950 0 21 999 9 83
1957235N11160 1957 47 WP MM NOT_NAMED 1957-08-29 12:00:00 TS 17.1000 134.400 main 1103 1103 __O___________ -1 17.1000 134.400 1 23 998 9 80
1957235N11160 1957 47 WP MM NOT_NAMED 1957-08-29 15:00:00 TS 17.1923 134.843 main 1146 1146 __P___________ -1 17.1923 134.843 1 21 999 9 77
1957235N11160 1957 47 WP MM NOT_NAMED 1957-08-29 18:00:00 TS 17.3000 135.300 main 1198 1198 __O___________ -1 17.3000 135.300 0 19 1000 9 77
1957235N11160 1957 47 WP MM NOT_NAMED 1957-08-29 21:00:00 TS 17.4028 135.790 main 1250 1250 __P___________ -1 17.4028 135.790 0 1001 10 78
1957235N11160 1957 47 WP MM NOT_NAMED 1957-08-30 00:00:00 TS 17.5000 136.300 main 1303 __O___________ -1 17.5000 136.300 0 1002 10 79

デジタル台風データ・検索

IBTrACS Databaseについて

本データベースは、米国NOAAが公開する1842年以降の世界の熱帯低気圧のベストトラックデータアーカイブInternational Best Track Archive for Climate Stewardship (IBTrACS)を、ウェブで閲覧しやすい形式に変換したものです。

最終更新日:2021-10-21